Metar z połowy godziny Komunikat METAR ze strony awiacja.imgw.pl Metar G30 EPWR METAR EPWR 200230Z 16002KT CAVOK 19/15 Q1015 =